Marchicora — V2OQ7 — position and weather

sailwx.info

Track history (hours):
 
Tides and Currents Weather Stations Pressure Air Temp Water Temp Dewpoint Dewpoint Depression Visibility Wind Speed Wind Dir Waves Ship Positions

Marchicora

Last reported at 2014-Oct-29 14:33 UTC. Time now 2014-Oct-31 07:03 UTC.
Position N 38°29' W 009°48'.

Length 153 m; draft 10.2 m.

Type: Cargo ship. MMSI: 304653000.

Date/timePositionNaut miles runAvg speedWind from/ knotsBaromVisibWave heightAir tempDewpointWater temp
2014-Oct-29 14:33N 38°29' W 009°48'1211.5
2014-Oct-29 13:33N 38°18' W 009°44'1111.4
2014-Oct-29 12:33N 38°07' W 009°41'1211.7
2014-Oct-29 11:33N 37°55' W 009°38'1111.5
2014-Oct-29 10:33N 37°44' W 009°35'1211.7
2014-Oct-29 09:33N 37°32' W 009°32'1412.1
2014-Oct-29 08:22N 37°18' W 009°27'4410.9
2014-Oct-29 04:20N 36°41' W 008°57'911.7
2014-Oct-29 03:33N 36°39' W 008°46'1211.8
2014-Oct-29 02:33N 36°35' W 008°32'1211.8
2014-Oct-29 01:31N 36°31' W 008°18'1711.9
2014-Oct-29 00:05N 36°26' W 007°58'612.1
2014-Oct-28 23:33N 36°24' W 007°50'1212.4
2014-Oct-28 22:33N 36°20' W 007°36'1212.3
2014-Oct-28 21:33N 36°16' W 007°21'1212.3
2014-Oct-28 20:33N 36°12' W 007°07'1412.1
2014-Oct-28 19:25N 36°08' W 006°51'6212.6
2014-Oct-28 14:31N 35°58' W 005°35'1111.7
2014-Oct-28 13:34N 36°01' W 005°22'22912.0
2014-Oct-27 18:33N 36°42' W 000°42'1312.3
2014-Oct-27 17:27N 36°45' W 000°26'1212.4
2014-Oct-27 16:31N 36°48' W 000°12'1212.9
2014-Oct-27 15:33N 36°51' E 000°03'1512.7
2014-Oct-27 14:22N 36°54' E 000°21'1113.0
2014-Oct-27 13:33N 36°56' E 000°34'1313.0
2014-Oct-27 12:33N 36°59' E 000°50'12 4.9
2014-Oct-27 10:11N 37°03' E 001°04'1 0.8
2014-Oct-27 09:14N 37°03' E 001°05'1 0.7
2014-Oct-27 08:09N 37°04' E 001°05'0 0.2
2014-Oct-27 07:32N 37°04' E 001°05'9 9.8
2014-Oct-27 06:34N 36°60' E 001°16'1212.2
2014-Oct-27 05:33N 37°02' E 001°31'1311.9
2014-Oct-27 04:27N 37°05' E 001°47'1011.0
2014-Oct-27 03:33N 37°07' E 001°59'1111.6
2014-Oct-27 02:33N 37°09' E 002°14'1212.0
2014-Oct-27 01:33N 37°11' E 002°28'1212.3
2014-Oct-27 00:33N 37°14' E 002°43'1212.3
2014-Oct-26 23:33N 37°16' E 002°59'1212.2
2014-Oct-26 22:33N 37°19' E 003°14'1312.3
2014-Oct-26 21:28N 37°21' E 003°30'1212.3
2014-Oct-26 20:31N 37°24' E 003°45'1312.3
2014-Oct-26 19:26N 37°26' E 004°01'1212.3
2014-Oct-26 18:29N 37°29' E 004°15'1112.4
2014-Oct-26 17:33N 37°31' E 004°30'1612.0
2014-Oct-26 16:16N 37°32' E 004°49'3512.2
2014-Oct-26 13:22N 37°37' E 005°33'18611.7
2014-Oct-25 21:31N 38°01' E 009°27'1211.8
2014-Oct-25 20:31N 38°02' E 009°42'1111.6
2014-Oct-25 19:33N 38°04' E 009°56'1211.8
2014-Oct-25 18:33N 38°05' E 010°11'1212.2
2014-Oct-25 17:33N 38°05' E 010°26'  
2014-Oct-22 18:14N 34°18' E 025°09'  
Track history (hours):
 
Tides and Currents Weather Stations Pressure Air Temp Water Temp Dewpoint Dewpoint Depression Visibility Wind Speed Wind Dir Waves Ship Positions

Marchicora

Last reported at 2014-Oct-29 14:33 UTC. Time now 2014-Oct-31 07:03 UTC.
Position N 38°29' W 009°48'.

Length 153 m; draft 10.2 m.

Type: Cargo ship. MMSI: 304653000.

Date/timePositionNaut miles runAvg speedWind from/ knotsBaromVisibWave heightAir tempDewpointWater temp
2014-Oct-29 14:33N 38°29' W 009°48'1211.5
2014-Oct-29 13:33N 38°18' W 009°44'1111.4
2014-Oct-29 12:33N 38°07' W 009°41'1211.7
2014-Oct-29 11:33N 37°55' W 009°38'1111.5
2014-Oct-29 10:33N 37°44' W 009°35'1211.7
2014-Oct-29 09:33N 37°32' W 009°32'1412.1
2014-Oct-29 08:22N 37°18' W 009°27'4410.9
2014-Oct-29 04:20N 36°41' W 008°57'911.7
2014-Oct-29 03:33N 36°39' W 008°46'1211.8
2014-Oct-29 02:33N 36°35' W 008°32'1211.8
2014-Oct-29 01:31N 36°31' W 008°18'1711.9
2014-Oct-29 00:05N 36°26' W 007°58'612.1
2014-Oct-28 23:33N 36°24' W 007°50'1212.4
2014-Oct-28 22:33N 36°20' W 007°36'1212.3
2014-Oct-28 21:33N 36°16' W 007°21'1212.3
2014-Oct-28 20:33N 36°12' W 007°07'1412.1
2014-Oct-28 19:25N 36°08' W 006°51'6212.6
2014-Oct-28 14:31N 35°58' W 005°35'1111.7
2014-Oct-28 13:34N 36°01' W 005°22'22912.0
2014-Oct-27 18:33N 36°42' W 000°42'1312.3
2014-Oct-27 17:27N 36°45' W 000°26'1212.4
2014-Oct-27 16:31N 36°48' W 000°12'1212.9
2014-Oct-27 15:33N 36°51' E 000°03'1512.7
2014-Oct-27 14:22N 36°54' E 000°21'1113.0
2014-Oct-27 13:33N 36°56' E 000°34'1313.0
2014-Oct-27 12:33N 36°59' E 000°50'12 4.9
2014-Oct-27 10:11N 37°03' E 001°04'1 0.8
2014-Oct-27 09:14N 37°03' E 001°05'1 0.7
2014-Oct-27 08:09N 37°04' E 001°05'0 0.2
2014-Oct-27 07:32N 37°04' E 001°05'9 9.8
2014-Oct-27 06:34N 36°60' E 001°16'1212.2
2014-Oct-27 05:33N 37°02' E 001°31'1311.9
2014-Oct-27 04:27N 37°05' E 001°47'1011.0
2014-Oct-27 03:33N 37°07' E 001°59'1111.6
2014-Oct-27 02:33N 37°09' E 002°14'1212.0
2014-Oct-27 01:33N 37°11' E 002°28'1212.3
2014-Oct-27 00:33N 37°14' E 002°43'1212.3
2014-Oct-26 23:33N 37°16' E 002°59'1212.2
2014-Oct-26 22:33N 37°19' E 003°14'1312.3
2014-Oct-26 21:28N 37°21' E 003°30'1212.3
2014-Oct-26 20:31N 37°24' E 003°45'1312.3
2014-Oct-26 19:26N 37°26' E 004°01'1212.3
2014-Oct-26 18:29N 37°29' E 004°15'1112.4
2014-Oct-26 17:33N 37°31' E 004°30'1612.0
2014-Oct-26 16:16N 37°32' E 004°49'3512.2
2014-Oct-26 13:22N 37°37' E 005°33'18611.7
2014-Oct-25 21:31N 38°01' E 009°27'1211.8
2014-Oct-25 20:31N 38°02' E 009°42'1111.6
2014-Oct-25 19:33N 38°04' E 009°56'1211.8
2014-Oct-25 18:33N 38°05' E 010°11'1212.2
2014-Oct-25 17:33N 38°05' E 010°26'  
2014-Oct-22 18:14N 34°18' E 025°09'  

Dump ship's entire track history